Strona główna
METAR-TAF:

METAR-TAF

Lotnisko :

Troy, Michigan, Stany Zjednoczone

Szerokość geograficzna: 42-32-35N, Długość geograficzna: 083-10-40W, wysokość: 222 m

Aktualna obserwacja pogody

Raport powstał 25 minut temu, godzina 07:55 UTC
Wiatr 4 kt od wschodnio-północny wschód
Temperatura 22°C
Wilgotność 78%
Ciśnienie 1015 hPa
Widzialność: 16.1 km
Zachmurzenie całkowite na wysokości 8500 ft

METAR: KVLL 280755Z AUTO 07004KT 10SM OVC085 22/18 A2997 RMK AO2 T02200175

czas: 04:20 (08:20 UTC)


TAF: brakujący

Obserwacja i prognoza pogody dla ponad 4000 lotnisk (raport METAR i TAF).

Dostępne stacje oznaczono żółtymi i czerwonymi punktami na mapie.

Najedź kursorem aby zobaczyć nazwę stacji.

Kliknij aby zobaczyć obserwacje i prognozy pogody.

Aby zmienić mapę: kliknij na zielony przycisk z czarnym krzyżykiem, aby powiększyć; na zielony przycisk z myślnikiem, aby pomniejszyć; na zielone strzałki, aby przejść do map sąsiednich.


METAR-TAF: